sensor_id;sensor_type;location;lat;lon;timestamp;P1;durP1;ratioP1;P2;durP2;ratioP2
25838;SDS011;13669;50.186;27.062;2022-11-20T00:01:16;37.88;;;13.10;;
25838;SDS011;13669;50.186;27.062;2022-11-20T00:03:45;39.88;;;13.75;;
25838;SDS011;13669;50.186;27.062;2022-11-20T00:06:13;38.10;;;13.63;;
25838;SDS011;13669;50.186;27.062;2022-11-20T00:08:43;32.97;;;12.63;;
25838;SDS011;13669;50.186;27.062;2022-11-20T00:11:21;25.00;;;10.52;;
25838;SDS011;13669;50.186;27.062;2022-11-20T00:13:52;27.08;;;10.43;;
25838;SDS011;13669;50.186;27.062;2022-11-20T00:16:22;32.67;;;11.73;;
25838;SDS011;13669;50.186;27.062;2022-11-20T00:18:51;23.55;;;9.05;;
25838;SDS011;13669;50.186;27.062;2022-11-20T00:21:20;38.85;;;11.88;;
25838;SDS011;13669;50.186;27.062;2022-11-20T00:23:49;39.35;;;14.27;;
25838;SDS011;13669;50.186;27.062;2022-11-20T00:26:21;37.33;;;13.80;;
25838;SDS011;13669;50.186;27.062;2022-11-20T00:28:53;34.75;;;12.93;;
25838;SDS011;13669;50.186;27.062;2022-11-20T00:31:22;43.00;;;14.45;;
25838;SDS011;13669;50.186;27.062;2022-11-20T00:33:50;29.42;;;11.13;;
25838;SDS011;13669;50.186;27.062;2022-11-20T00:36:18;34.95;;;13.35;;
25838;SDS011;13669;50.186;27.062;2022-11-20T00:38:50;42.00;;;14.73;;
25838;SDS011;13669;50.186;27.062;2022-11-20T00:41:23;31.77;;;12.88;;
25838;SDS011;13669;50.186;27.062;2022-11-20T00:43:51;36.90;;;14.75;;
25838;SDS011;13669;50.186;27.062;2022-11-20T00:46:21;42.33;;;13.70;;
25838;SDS011;13669;50.186;27.062;2022-11-20T00:48:50;40.65;;;13.43;;
25838;SDS011;13669;50.186;27.062;2022-11-20T00:51:18;36.85;;;12.93;;
25838;SDS011;13669;50.186;27.062;2022-11-20T00:53:47;33.10;;;12.02;;
25838;SDS011;13669;50.186;27.062;2022-11-20T00:56:16;26.73;;;10.93;;
25838;SDS011;13669;50.186;27.062;2022-11-20T00:58:46;30.77;;;11.13;;
25838;SDS011;13669;50.186;27.062;2022-11-20T01:01:18;31.92;;;10.35;;
25838;SDS011;13669;50.186;27.062;2022-11-20T01:03:49;25.00;;;9.10;;
25838;SDS011;13669;50.186;27.062;2022-11-20T01:06:19;18.88;;;7.78;;
25838;SDS011;13669;50.186;27.062;2022-11-20T01:11:17;16.80;;;6.60;;
25838;SDS011;13669;50.186;27.062;2022-11-20T01:13:50;15.60;;;7.00;;
25838;SDS011;13669;50.186;27.062;2022-11-20T01:16:20;13.52;;;5.72;;
25838;SDS011;13669;50.186;27.062;2022-11-20T01:18:52;12.95;;;5.55;;
25838;SDS011;13669;50.186;27.062;2022-11-20T01:21:23;12.82;;;5.97;;
25838;SDS011;13669;50.186;27.062;2022-11-20T01:23:58;13.32;;;5.57;;
25838;SDS011;13669;50.186;27.062;2022-11-20T01:26:29;11.82;;;5.53;;
25838;SDS011;13669;50.186;27.062;2022-11-20T01:28:59;8.85;;;4.88;;
25838;SDS011;13669;50.186;27.062;2022-11-20T01:31:28;9.98;;;4.30;;
25838;SDS011;13669;50.186;27.062;2022-11-20T01:33:59;16.40;;;6.25;;
25838;SDS011;13669;50.186;27.062;2022-11-20T01:36:29;13.63;;;5.60;;
25838;SDS011;13669;50.186;27.062;2022-11-20T01:38:58;9.88;;;3.28;;
25838;SDS011;13669;50.186;27.062;2022-11-20T01:41:34;12.75;;;5.28;;
25838;SDS011;13669;50.186;27.062;2022-11-20T01:44:22;9.13;;;4.40;;
25838;SDS011;13669;50.186;27.062;2022-11-20T01:47:10;11.20;;;4.88;;
25838;SDS011;13669;50.186;27.062;2022-11-20T01:49:42;14.75;;;6.57;;
25838;SDS011;13669;50.186;27.062;2022-11-20T01:52:18;11.57;;;4.28;;
25838;SDS011;13669;50.186;27.062;2022-11-20T01:55:00;16.17;;;5.57;;
25838;SDS011;13669;50.186;27.062;2022-11-20T01:57:39;11.07;;;5.13;;
25838;SDS011;13669;50.186;27.062;2022-11-20T02:00:08;9.40;;;4.38;;
25838;SDS011;13669;50.186;27.062;2022-11-20T02:02:39;9.50;;;4.07;;
25838;SDS011;13669;50.186;27.062;2022-11-20T02:07:58;7.35;;;3.92;;
25838;SDS011;13669;50.186;27.062;2022-11-20T02:10:26;8.35;;;4.15;;
25838;SDS011;13669;50.186;27.062;2022-11-20T02:12:54;12.32;;;4.35;;
25838;SDS011;13669;50.186;27.062;2022-11-20T02:15:41;9.10;;;4.07;;
25838;SDS011;13669;50.186;27.062;2022-11-20T02:18:10;10.68;;;4.93;;
25838;SDS011;13669;50.186;27.062;2022-11-20T02:20:43;13.57;;;4.90;;
25838;SDS011;13669;50.186;27.062;2022-11-20T02:23:24;12.30;;;5.25;;
25838;SDS011;13669;50.186;27.062;2022-11-20T02:26:00;13.60;;;4.97;;
25838;SDS011;13669;50.186;27.062;2022-11-20T02:28:31;9.98;;;4.82;;
25838;SDS011;13669;50.186;27.062;2022-11-20T02:31:00;8.82;;;4.18;;
25838;SDS011;13669;50.186;27.062;2022-11-20T02:33:27;10.95;;;4.70;;
25838;SDS011;13669;50.186;27.062;2022-11-20T02:35:55;9.25;;;4.90;;
25838;SDS011;13669;50.186;27.062;2022-11-20T02:38:22;9.85;;;4.60;;
25838;SDS011;13669;50.186;27.062;2022-11-20T02:40:50;10.25;;;4.93;;
25838;SDS011;13669;50.186;27.062;2022-11-20T02:43:22;12.38;;;4.72;;
25838;SDS011;13669;50.186;27.062;2022-11-20T02:45:50;8.65;;;4.05;;
25838;SDS011;13669;50.186;27.062;2022-11-20T02:48:17;10.05;;;4.60;;
25838;SDS011;13669;50.186;27.062;2022-11-20T02:50:44;8.68;;;4.25;;
25838;SDS011;13669;50.186;27.062;2022-11-20T02:53:12;11.70;;;5.50;;
25838;SDS011;13669;50.186;27.062;2022-11-20T02:55:39;11.10;;;5.25;;
25838;SDS011;13669;50.186;27.062;2022-11-20T02:58:07;10.38;;;4.40;;
25838;SDS011;13669;50.186;27.062;2022-11-20T03:00:34;11.10;;;4.65;;
25838;SDS011;13669;50.186;27.062;2022-11-20T03:03:02;10.85;;;5.00;;
25838;SDS011;13669;50.186;27.062;2022-11-20T03:05:29;10.43;;;5.20;;
25838;SDS011;13669;50.186;27.062;2022-11-20T03:07:57;15.02;;;5.82;;
25838;SDS011;13669;50.186;27.062;2022-11-20T03:10:24;13.88;;;6.18;;
25838;SDS011;13669;50.186;27.062;2022-11-20T03:12:55;16.00;;;6.38;;
25838;SDS011;13669;50.186;27.062;2022-11-20T03:15:23;18.30;;;6.97;;
25838;SDS011;13669;50.186;27.062;2022-11-20T03:17:53;15.05;;;6.55;;
25838;SDS011;13669;50.186;27.062;2022-11-20T03:20:22;12.63;;;5.50;;
25838;SDS011;13669;50.186;27.062;2022-11-20T03:22:50;13.60;;;5.78;;
25838;SDS011;13669;50.186;27.062;2022-11-20T03:25:17;13.13;;;5.93;;
25838;SDS011;13669;50.186;27.062;2022-11-20T03:27:44;18.98;;;6.97;;
25838;SDS011;13669;50.186;27.062;2022-11-20T03:30:12;14.35;;;6.22;;
25838;SDS011;13669;50.186;27.062;2022-11-20T03:32:40;13.55;;;5.72;;
25838;SDS011;13669;50.186;27.062;2022-11-20T03:35:08;12.60;;;6.35;;
25838;SDS011;13669;50.186;27.062;2022-11-20T03:37:36;14.05;;;6.38;;
25838;SDS011;13669;50.186;27.062;2022-11-20T03:40:03;13.02;;;5.93;;
25838;SDS011;13669;50.186;27.062;2022-11-20T03:42:31;15.93;;;6.30;;
25838;SDS011;13669;50.186;27.062;2022-11-20T03:45:15;13.60;;;6.00;;
25838;SDS011;13669;50.186;27.062;2022-11-20T03:47:44;13.77;;;6.35;;
25838;SDS011;13669;50.186;27.062;2022-11-20T03:50:13;12.38;;;6.15;;
25838;SDS011;13669;50.186;27.062;2022-11-20T03:52:40;13.77;;;6.22;;
25838;SDS011;13669;50.186;27.062;2022-11-20T03:55:08;12.05;;;6.18;;
25838;SDS011;13669;50.186;27.062;2022-11-20T03:57:36;11.15;;;5.45;;
25838;SDS011;13669;50.186;27.062;2022-11-20T04:00:04;12.82;;;6.38;;
25838;SDS011;13669;50.186;27.062;2022-11-20T04:02:32;12.07;;;5.72;;
25838;SDS011;13669;50.186;27.062;2022-11-20T04:04:59;14.32;;;6.10;;
25838;SDS011;13669;50.186;27.062;2022-11-20T04:07:26;12.20;;;5.93;;
25838;SDS011;13669;50.186;27.062;2022-11-20T04:09:54;13.43;;;5.72;;
25838;SDS011;13669;50.186;27.062;2022-11-20T04:12:21;13.20;;;6.15;;
25838;SDS011;13669;50.186;27.062;2022-11-20T04:14:48;13.02;;;6.40;;
25838;SDS011;13669;50.186;27.062;2022-11-20T04:17:16;13.27;;;5.43;;
25838;SDS011;13669;50.186;27.062;2022-11-20T04:19:43;16.10;;;6.38;;
25838;SDS011;13669;50.186;27.062;2022-11-20T04:22:11;14.30;;;6.53;;
25838;SDS011;13669;50.186;27.062;2022-11-20T04:24:38;11.82;;;5.97;;
25838;SDS011;13669;50.186;27.062;2022-11-20T04:27:06;13.38;;;6.47;;
25838;SDS011;13669;50.186;27.062;2022-11-20T04:29:33;14.05;;;6.60;;
25838;SDS011;13669;50.186;27.062;2022-11-20T04:32:01;12.30;;;6.63;;
25838;SDS011;13669;50.186;27.062;2022-11-20T04:34:28;15.38;;;6.43;;
25838;SDS011;13669;50.186;27.062;2022-11-20T04:36:55;14.48;;;6.32;;
25838;SDS011;13669;50.186;27.062;2022-11-20T04:39:23;17.52;;;7.10;;
25838;SDS011;13669;50.186;27.062;2022-11-20T04:41:50;14.27;;;7.00;;
25838;SDS011;13669;50.186;27.062;2022-11-20T04:44:38;12.70;;;6.03;;
25838;SDS011;13669;50.186;27.062;2022-11-20T04:47:05;13.68;;;6.10;;
25838;SDS011;13669;50.186;27.062;2022-11-20T04:49:32;14.38;;;7.07;;
25838;SDS011;13669;50.186;27.062;2022-11-20T04:52:00;17.17;;;7.35;;
25838;SDS011;13669;50.186;27.062;2022-11-20T04:54:28;14.43;;;7.00;;
25838;SDS011;13669;50.186;27.062;2022-11-20T04:56:55;13.95;;;6.70;;
25838;SDS011;13669;50.186;27.062;2022-11-20T04:59:22;16.08;;;7.57;;
25838;SDS011;13669;50.186;27.062;2022-11-20T05:01:50;13.98;;;6.15;;
25838;SDS011;13669;50.186;27.062;2022-11-20T05:04:18;14.82;;;6.68;;
25838;SDS011;13669;50.186;27.062;2022-11-20T05:06:45;15.52;;;7.07;;
25838;SDS011;13669;50.186;27.062;2022-11-20T05:09:13;12.57;;;6.15;;
25838;SDS011;13669;50.186;27.062;2022-11-20T05:11:40;15.20;;;6.78;;
25838;SDS011;13669;50.186;27.062;2022-11-20T05:14:07;12.27;;;6.35;;
25838;SDS011;13669;50.186;27.062;2022-11-20T05:16:35;8.25;;;4.93;;
25838;SDS011;13669;50.186;27.062;2022-11-20T05:19:02;12.85;;;5.68;;
25838;SDS011;13669;50.186;27.062;2022-11-20T05:21:30;15.45;;;6.57;;
25838;SDS011;13669;50.186;27.062;2022-11-20T05:23:59;15.05;;;7.05;;
25838;SDS011;13669;50.186;27.062;2022-11-20T05:26:26;15.02;;;7.30;;
25838;SDS011;13669;50.186;27.062;2022-11-20T05:28:53;17.25;;;7.78;;
25838;SDS011;13669;50.186;27.062;2022-11-20T05:31:22;17.88;;;8.18;;
25838;SDS011;13669;50.186;27.062;2022-11-20T05:33:54;14.57;;;6.63;;
25838;SDS011;13669;50.186;27.062;2022-11-20T05:36:23;16.05;;;7.50;;
25838;SDS011;13669;50.186;27.062;2022-11-20T05:38:50;16.30;;;7.25;;
25838;SDS011;13669;50.186;27.062;2022-11-20T05:41:25;16.75;;;7.30;;
25838;SDS011;13669;50.186;27.062;2022-11-20T05:43:53;16.48;;;7.75;;
25838;SDS011;13669;50.186;27.062;2022-11-20T05:46:20;14.23;;;6.85;;
25838;SDS011;13669;50.186;27.062;2022-11-20T05:48:55;19.20;;;8.15;;
25838;SDS011;13669;50.186;27.062;2022-11-20T05:51:23;13.75;;;6.82;;
25838;SDS011;13669;50.186;27.062;2022-11-20T05:53:55;17.70;;;8.32;;
25838;SDS011;13669;50.186;27.062;2022-11-20T05:56:23;16.15;;;7.22;;
25838;SDS011;13669;50.186;27.062;2022-11-20T05:58:51;16.63;;;7.25;;
25838;SDS011;13669;50.186;27.062;2022-11-20T06:01:19;17.45;;;7.88;;
25838;SDS011;13669;50.186;27.062;2022-11-20T06:03:49;19.05;;;8.32;;
25838;SDS011;13669;50.186;27.062;2022-11-20T06:06:18;17.80;;;8.30;;
25838;SDS011;13669;50.186;27.062;2022-11-20T06:08:46;17.73;;;8.50;;
25838;SDS011;13669;50.186;27.062;2022-11-20T06:11:14;18.30;;;8.15;;
25838;SDS011;13669;50.186;27.062;2022-11-20T06:13:42;16.77;;;7.93;;
25838;SDS011;13669;50.186;27.062;2022-11-20T06:16:11;17.35;;;7.78;;
25838;SDS011;13669;50.186;27.062;2022-11-20T06:18:41;16.45;;;7.60;;
25838;SDS011;13669;50.186;27.062;2022-11-20T06:21:09;19.65;;;7.95;;
25838;SDS011;13669;50.186;27.062;2022-11-20T06:23:38;14.82;;;7.45;;
25838;SDS011;13669;50.186;27.062;2022-11-20T06:26:07;16.92;;;7.78;;
25838;SDS011;13669;50.186;27.062;2022-11-20T06:28:36;17.08;;;7.95;;
25838;SDS011;13669;50.186;27.062;2022-11-20T06:31:04;17.40;;;8.15;;
25838;SDS011;13669;50.186;27.062;2022-11-20T06:33:33;16.60;;;7.93;;
25838;SDS011;13669;50.186;27.062;2022-11-20T06:36:01;18.27;;;8.35;;
25838;SDS011;13669;50.186;27.062;2022-11-20T06:38:36;18.35;;;8.88;;
25838;SDS011;13669;50.186;27.062;2022-11-20T06:41:05;16.85;;;8.48;;
25838;SDS011;13669;50.186;27.062;2022-11-20T06:43:33;25.98;;;10.73;;
25838;SDS011;13669;50.186;27.062;2022-11-20T06:46:00;18.27;;;8.57;;
25838;SDS011;13669;50.186;27.062;2022-11-20T06:48:28;20.55;;;9.60;;
25838;SDS011;13669;50.186;27.062;2022-11-20T06:50:56;17.50;;;9.13;;
25838;SDS011;13669;50.186;27.062;2022-11-20T06:53:23;17.70;;;9.18;;
25838;SDS011;13669;50.186;27.062;2022-11-20T06:55:51;18.63;;;9.15;;
25838;SDS011;13669;50.186;27.062;2022-11-20T06:58:19;18.20;;;8.80;;
25838;SDS011;13669;50.186;27.062;2022-11-20T07:00:46;21.45;;;8.77;;
25838;SDS011;13669;50.186;27.062;2022-11-20T07:03:14;20.63;;;10.07;;
25838;SDS011;13669;50.186;27.062;2022-11-20T07:05:41;22.27;;;9.63;;
25838;SDS011;13669;50.186;27.062;2022-11-20T07:08:09;22.55;;;10.10;;
25838;SDS011;13669;50.186;27.062;2022-11-20T07:10:36;19.17;;;9.50;;
25838;SDS011;13669;50.186;27.062;2022-11-20T07:13:04;25.33;;;11.23;;
25838;SDS011;13669;50.186;27.062;2022-11-20T07:15:33;21.40;;;10.68;;
25838;SDS011;13669;50.186;27.062;2022-11-20T07:18:01;22.80;;;10.48;;
25838;SDS011;13669;50.186;27.062;2022-11-20T07:20:28;25.00;;;11.82;;
25838;SDS011;13669;50.186;27.062;2022-11-20T07:22:56;23.40;;;11.38;;
25838;SDS011;13669;50.186;27.062;2022-11-20T07:25:24;25.17;;;11.20;;
25838;SDS011;13669;50.186;27.062;2022-11-20T07:27:57;25.95;;;11.82;;
25838;SDS011;13669;50.186;27.062;2022-11-20T07:30:25;22.52;;;9.80;;
25838;SDS011;13669;50.186;27.062;2022-11-20T07:32:54;25.55;;;10.15;;
25838;SDS011;13669;50.186;27.062;2022-11-20T07:35:25;19.80;;;10.25;;
25838;SDS011;13669;50.186;27.062;2022-11-20T07:37:52;23.90;;;10.98;;
25838;SDS011;13669;50.186;27.062;2022-11-20T07:40:20;22.63;;;10.48;;
25838;SDS011;13669;50.186;27.062;2022-11-20T07:42:48;25.85;;;11.18;;
25838;SDS011;13669;50.186;27.062;2022-11-20T07:45:17;24.60;;;11.52;;
25838;SDS011;13669;50.186;27.062;2022-11-20T07:47:45;20.13;;;9.50;;
25838;SDS011;13669;50.186;27.062;2022-11-20T07:50:13;19.73;;;10.70;;
25838;SDS011;13669;50.186;27.062;2022-11-20T07:52:41;21.17;;;10.32;;
25838;SDS011;13669;50.186;27.062;2022-11-20T07:55:09;23.45;;;11.63;;
25838;SDS011;13669;50.186;27.062;2022-11-20T07:57:37;21.55;;;10.48;;
25838;SDS011;13669;50.186;27.062;2022-11-20T08:00:05;24.88;;;11.98;;
25838;SDS011;13669;50.186;27.062;2022-11-20T08:02:39;24.80;;;11.52;;
25838;SDS011;13669;50.186;27.062;2022-11-20T08:05:10;23.63;;;11.35;;
25838;SDS011;13669;50.186;27.062;2022-11-20T08:07:38;24.35;;;11.77;;
25838;SDS011;13669;50.186;27.062;2022-11-20T08:10:08;19.33;;;9.52;;
25838;SDS011;13669;50.186;27.062;2022-11-20T08:12:43;25.33;;;11.82;;
25838;SDS011;13669;50.186;27.062;2022-11-20T08:15:33;24.95;;;10.77;;
25838;SDS011;13669;50.186;27.062;2022-11-20T08:18:02;19.17;;;10.48;;
25838;SDS011;13669;50.186;27.062;2022-11-20T08:20:54;22.58;;;11.07;;
25838;SDS011;13669;50.186;27.062;2022-11-20T08:23:22;23.02;;;10.80;;
25838;SDS011;13669;50.186;27.062;2022-11-20T08:25:49;18.55;;;9.65;;
25838;SDS011;13669;50.186;27.062;2022-11-20T08:28:18;23.02;;;10.05;;
25838;SDS011;13669;50.186;27.062;2022-11-20T08:30:48;23.98;;;10.45;;
25838;SDS011;13669;50.186;27.062;2022-11-20T08:33:17;24.02;;;11.48;;
25838;SDS011;13669;50.186;27.062;2022-11-20T08:35:45;20.23;;;9.40;;
25838;SDS011;13669;50.186;27.062;2022-11-20T08:38:13;22.02;;;10.38;;
25838;SDS011;13669;50.186;27.062;2022-11-20T08:40:40;19.00;;;9.55;;
25838;SDS011;13669;50.186;27.062;2022-11-20T08:43:08;17.80;;;9.25;;
25838;SDS011;13669;50.186;27.062;2022-11-20T08:45:35;22.75;;;11.48;;
25838;SDS011;13669;50.186;27.062;2022-11-20T08:48:03;22.77;;;10.98;;
25838;SDS011;13669;50.186;27.062;2022-11-20T08:50:31;18.15;;;10.02;;
25838;SDS011;13669;50.186;27.062;2022-11-20T08:53:06;20.08;;;9.63;;
25838;SDS011;13669;50.186;27.062;2022-11-20T08:55:33;22.02;;;11.10;;
25838;SDS011;13669;50.186;27.062;2022-11-20T08:58:04;20.98;;;10.52;;
25838;SDS011;13669;50.186;27.062;2022-11-20T09:00:32;22.42;;;11.20;;
25838;SDS011;13669;50.186;27.062;2022-11-20T09:03:01;23.55;;;12.40;;
25838;SDS011;13669;50.186;27.062;2022-11-20T09:05:29;19.63;;;10.38;;
25838;SDS011;13669;50.186;27.062;2022-11-20T09:07:56;21.85;;;9.77;;
25838;SDS011;13669;50.186;27.062;2022-11-20T09:10:25;20.42;;;11.10;;
25838;SDS011;13669;50.186;27.062;2022-11-20T09:12:53;23.08;;;11.40;;
25838;SDS011;13669;50.186;27.062;2022-11-20T09:15:24;21.50;;;10.98;;
25838;SDS011;13669;50.186;27.062;2022-11-20T09:17:57;20.25;;;10.57;;
25838;SDS011;13669;50.186;27.062;2022-11-20T09:20:26;23.13;;;10.88;;
25838;SDS011;13669;50.186;27.062;2022-11-20T09:22:55;24.73;;;11.55;;
25838;SDS011;13669;50.186;27.062;2022-11-20T09:25:24;23.00;;;11.00;;
25838;SDS011;13669;50.186;27.062;2022-11-20T09:27:58;22.40;;;11.00;;
25838;SDS011;13669;50.186;27.062;2022-11-20T09:30:26;20.42;;;10.15;;
25838;SDS011;13669;50.186;27.062;2022-11-20T09:32:54;21.67;;;10.20;;
25838;SDS011;13669;50.186;27.062;2022-11-20T09:35:21;20.85;;;10.27;;
25838;SDS011;13669;50.186;27.062;2022-11-20T09:37:49;21.17;;;10.80;;
25838;SDS011;13669;50.186;27.062;2022-11-20T09:40:21;19.00;;;10.25;;
25838;SDS011;13669;50.186;27.062;2022-11-20T09:43:03;26.20;;;11.90;;
25838;SDS011;13669;50.186;27.062;2022-11-20T09:56:27;28.77;;;12.68;;
25838;SDS011;13669;50.186;27.062;2022-11-20T09:58:57;28.75;;;12.82;;
25838;SDS011;13669;50.186;27.062;2022-11-20T10:01:30;27.40;;;13.05;;
25838;SDS011;13669;50.186;27.062;2022-11-20T10:04:02;27.80;;;12.18;;
25838;SDS011;13669;50.186;27.062;2022-11-20T10:06:34;22.40;;;11.77;;
25838;SDS011;13669;50.186;27.062;2022-11-20T10:19:44;23.00;;;11.35;;
25838;SDS011;13669;50.186;27.062;2022-11-20T10:22:38;24.17;;;11.60;;
25838;SDS011;13669;50.186;27.062;2022-11-20T10:31:40;24.48;;;12.23;;
25838;SDS011;13669;50.186;27.062;2022-11-20T10:34:23;22.50;;;11.67;;
25838;SDS011;13669;50.186;27.062;2022-11-20T10:37:24;22.77;;;12.18;;
25838;SDS011;13669;50.186;27.062;2022-11-20T10:42:40;20.95;;;10.65;;
25838;SDS011;13669;50.186;27.062;2022-11-20T10:45:15;22.20;;;11.00;;
25838;SDS011;13669;50.186;27.062;2022-11-20T10:47:46;18.90;;;9.32;;
25838;SDS011;13669;50.186;27.062;2022-11-20T10:50:16;20.30;;;10.68;;
25838;SDS011;13669;50.186;27.062;2022-11-20T11:00:38;19.70;;;9.68;;
25838;SDS011;13669;50.186;27.062;2022-11-20T11:03:25;21.48;;;10.40;;
25838;SDS011;13669;50.186;27.062;2022-11-20T11:08:41;20.33;;;10.55;;
25838;SDS011;13669;50.186;27.062;2022-11-20T11:11:29;18.15;;;9.98;;
25838;SDS011;13669;50.186;27.062;2022-11-20T11:14:10;18.35;;;9.05;;
25838;SDS011;13669;50.186;27.062;2022-11-20T11:19:24;24.40;;;11.80;;
25838;SDS011;13669;50.186;27.062;2022-11-20T11:21:53;24.30;;;12.25;;
25838;SDS011;13669;50.186;27.062;2022-11-20T11:24:27;21.42;;;11.20;;
25838;SDS011;13669;50.186;27.062;2022-11-20T11:27:12;18.65;;;8.52;;
25838;SDS011;13669;50.186;27.062;2022-11-20T11:29:43;25.75;;;11.60;;
25838;SDS011;13669;50.186;27.062;2022-11-20T11:32:17;20.85;;;10.35;;
25838;SDS011;13669;50.186;27.062;2022-11-20T11:34:59;21.17;;;10.20;;
25838;SDS011;13669;50.186;27.062;2022-11-20T11:37:47;19.30;;;9.73;;
25838;SDS011;13669;50.186;27.062;2022-11-20T11:40:15;17.75;;;9.18;;
25838;SDS011;13669;50.186;27.062;2022-11-20T11:42:52;20.33;;;9.35;;
25838;SDS011;13669;50.186;27.062;2022-11-20T11:45:23;19.08;;;9.32;;
25838;SDS011;13669;50.186;27.062;2022-11-20T11:47:51;20.77;;;9.38;;
25838;SDS011;13669;50.186;27.062;2022-11-20T11:50:22;22.20;;;10.27;;
25838;SDS011;13669;50.186;27.062;2022-11-20T11:53:07;24.48;;;10.48;;
25838;SDS011;13669;50.186;27.062;2022-11-20T11:55:43;22.98;;;11.10;;
25838;SDS011;13669;50.186;27.062;2022-11-20T11:58:39;18.33;;;10.02;;
25838;SDS011;13669;50.186;27.062;2022-11-20T12:01:22;19.30;;;9.35;;
25838;SDS011;13669;50.186;27.062;2022-11-20T12:07:06;18.05;;;8.90;;
25838;SDS011;13669;50.186;27.062;2022-11-20T12:10:02;17.75;;;8.93;;
25838;SDS011;13669;50.186;27.062;2022-11-20T12:12:32;21.48;;;10.68;;
25838;SDS011;13669;50.186;27.062;2022-11-20T12:15:07;17.90;;;9.10;;
25838;SDS011;13669;50.186;27.062;2022-11-20T12:17:38;20.67;;;10.18;;
25838;SDS011;13669;50.186;27.062;2022-11-20T12:20:11;19.48;;;9.98;;
25838;SDS011;13669;50.186;27.062;2022-11-20T12:25:08;20.08;;;10.55;;
25838;SDS011;13669;50.186;27.062;2022-11-20T12:37:07;22.30;;;10.57;;
25838;SDS011;13669;50.186;27.062;2022-11-20T12:53:34;22.80;;;11.40;;
25838;SDS011;13669;50.186;27.062;2022-11-20T13:01:52;24.13;;;12.18;;
25838;SDS011;13669;50.186;27.062;2022-11-20T13:07:30;26.83;;;11.63;;
25838;SDS011;13669;50.186;27.062;2022-11-20T13:10:00;24.45;;;12.73;;
25838;SDS011;13669;50.186;27.062;2022-11-20T13:17:46;25.92;;;13.25;;
25838;SDS011;13669;50.186;27.062;2022-11-20T13:20:17;22.27;;;12.00;;
25838;SDS011;13669;50.186;27.062;2022-11-20T13:22:47;25.85;;;12.77;;
25838;SDS011;13669;50.186;27.062;2022-11-20T13:27:57;23.88;;;11.80;;
25838;SDS011;13669;50.186;27.062;2022-11-20T13:30:27;19.88;;;10.73;;
25838;SDS011;13669;50.186;27.062;2022-11-20T13:38:50;21.10;;;11.05;;
25838;SDS011;13669;50.186;27.062;2022-11-20T13:41:35;24.10;;;11.67;;
25838;SDS011;13669;50.186;27.062;2022-11-20T13:46:42;20.08;;;10.80;;
25838;SDS011;13669;50.186;27.062;2022-11-20T13:49:31;20.90;;;10.52;;
25838;SDS011;13669;50.186;27.062;2022-11-20T14:00:43;19.90;;;10.73;;
25838;SDS011;13669;50.186;27.062;2022-11-20T14:03:19;22.58;;;10.50;;
25838;SDS011;13669;50.186;27.062;2022-11-20T14:08:55;24.67;;;10.77;;
25838;SDS011;13669;50.186;27.062;2022-11-20T14:14:03;24.88;;;11.45;;
25838;SDS011;13669;50.186;27.062;2022-11-20T14:16:42;26.48;;;12.55;;
25838;SDS011;13669;50.186;27.062;2022-11-20T14:19:30;26.02;;;12.27;;
25838;SDS011;13669;50.186;27.062;2022-11-20T14:22:17;25.77;;;12.52;;
25838;SDS011;13669;50.186;27.062;2022-11-20T14:24:47;25.88;;;12.23;;
25838;SDS011;13669;50.186;27.062;2022-11-20T14:27:18;25.92;;;12.70;;
25838;SDS011;13669;50.186;27.062;2022-11-20T14:29:47;24.70;;;11.30;;
25838;SDS011;13669;50.186;27.062;2022-11-20T14:32:17;24.00;;;12.27;;
25838;SDS011;13669;50.186;27.062;2022-11-20T14:34:47;26.13;;;11.75;;
25838;SDS011;13669;50.186;27.062;2022-11-20T14:37:20;20.50;;;8.73;;
25838;SDS011;13669;50.186;27.062;2022-11-20T14:39:51;22.55;;;11.43;;
25838;SDS011;13669;50.186;27.062;2022-11-20T14:44:50;26.67;;;12.73;;
25838;SDS011;13669;50.186;27.062;2022-11-20T14:47:22;26.88;;;12.68;;
25838;SDS011;13669;50.186;27.062;2022-11-20T14:50:00;24.25;;;12.60;;
25838;SDS011;13669;50.186;27.062;2022-11-20T14:52:35;25.38;;;12.25;;
25838;SDS011;13669;50.186;27.062;2022-11-20T14:55:02;24.55;;;12.25;;
25838;SDS011;13669;50.186;27.062;2022-11-20T14:57:34;25.88;;;13.13;;
25838;SDS011;13669;50.186;27.062;2022-11-20T15:00:04;24.48;;;12.45;;
25838;SDS011;13669;50.186;27.062;2022-11-20T15:02:32;24.92;;;12.57;;
25838;SDS011;13669;50.186;27.062;2022-11-20T15:05:00;26.33;;;12.77;;
25838;SDS011;13669;50.186;27.062;2022-11-20T15:07:40;24.10;;;12.32;;
25838;SDS011;13669;50.186;27.062;2022-11-20T15:10:24;24.65;;;12.65;;
25838;SDS011;13669;50.186;27.062;2022-11-20T15:13:00;29.35;;;13.48;;
25838;SDS011;13669;50.186;27.062;2022-11-20T15:15:48;26.65;;;13.02;;
25838;SDS011;13669;50.186;27.062;2022-11-20T15:18:18;23.25;;;12.57;;
25838;SDS011;13669;50.186;27.062;2022-11-20T15:20:48;24.80;;;12.95;;
25838;SDS011;13669;50.186;27.062;2022-11-20T15:23:17;26.05;;;12.88;;
25838;SDS011;13669;50.186;27.062;2022-11-20T15:25:46;27.17;;;13.80;;
25838;SDS011;13669;50.186;27.062;2022-11-20T15:30:47;25.13;;;13.07;;
25838;SDS011;13669;50.186;27.062;2022-11-20T15:33:16;28.85;;;13.82;;
25838;SDS011;13669;50.186;27.062;2022-11-20T15:35:44;24.67;;;12.95;;
25838;SDS011;13669;50.186;27.062;2022-11-20T15:38:12;26.77;;;12.98;;
25838;SDS011;13669;50.186;27.062;2022-11-20T15:40:40;23.83;;;12.63;;
25838;SDS011;13669;50.186;27.062;2022-11-20T15:43:07;25.95;;;13.98;;
25838;SDS011;13669;50.186;27.062;2022-11-20T15:45:46;28.30;;;13.27;;
25838;SDS011;13669;50.186;27.062;2022-11-20T15:48:18;27.25;;;12.82;;
25838;SDS011;13669;50.186;27.062;2022-11-20T15:51:01;25.58;;;13.10;;
25838;SDS011;13669;50.186;27.062;2022-11-20T15:53:29;25.90;;;13.45;;
25838;SDS011;13669;50.186;27.062;2022-11-20T15:55:57;27.02;;;13.68;;
25838;SDS011;13669;50.186;27.062;2022-11-20T15:58:24;27.27;;;13.30;;
25838;SDS011;13669;50.186;27.062;2022-11-20T16:00:53;27.17;;;14.55;;
25838;SDS011;13669;50.186;27.062;2022-11-20T16:03:21;23.60;;;12.40;;
25838;SDS011;13669;50.186;27.062;2022-11-20T16:05:49;28.88;;;13.90;;
25838;SDS011;13669;50.186;27.062;2022-11-20T16:08:16;30.15;;;14.98;;
25838;SDS011;13669;50.186;27.062;2022-11-20T16:10:44;32.97;;;14.32;;
25838;SDS011;13669;50.186;27.062;2022-11-20T16:13:12;28.42;;;13.13;;
25838;SDS011;13669;50.186;27.062;2022-11-20T16:16:01;29.45;;;14.23;;
25838;SDS011;13669;50.186;27.062;2022-11-20T16:18:33;28.02;;;14.40;;
25838;SDS011;13669;50.186;27.062;2022-11-20T16:21:01;30.95;;;15.88;;
25838;SDS011;13669;50.186;27.062;2022-11-20T16:23:29;28.13;;;14.10;;
25838;SDS011;13669;50.186;27.062;2022-11-20T16:25:56;27.67;;;14.10;;
25838;SDS011;13669;50.186;27.062;2022-11-20T16:28:24;29.02;;;14.38;;
25838;SDS011;13669;50.186;27.062;2022-11-20T16:30:52;29.90;;;14.18;;
25838;SDS011;13669;50.186;27.062;2022-11-20T16:33:19;32.03;;;16.02;;
25838;SDS011;13669;50.186;27.062;2022-11-20T16:35:47;27.88;;;14.13;;
25838;SDS011;13669;50.186;27.062;2022-11-20T16:38:14;26.77;;;13.45;;
25838;SDS011;13669;50.186;27.062;2022-11-20T16:40:41;30.00;;;15.65;;